sensor_id;sensor_type;location;lat;lon;timestamp;temperature;humidity
2042;DHT22;1026;51.460;7.252;2023-07-22T00:02:22;18.20;78.90
2042;DHT22;1026;51.460;7.252;2023-07-22T00:04:56;18.20;78.80
2042;DHT22;1026;51.460;7.252;2023-07-22T00:07:23;18.20;78.90
2042;DHT22;1026;51.460;7.252;2023-07-22T00:09:50;18.20;79.70
2042;DHT22;1026;51.460;7.252;2023-07-22T00:12:23;18.10;78.80
2042;DHT22;1026;51.460;7.252;2023-07-22T00:14:52;18.10;78.80
2042;DHT22;1026;51.460;7.252;2023-07-22T00:17:28;18.10;78.90
2042;DHT22;1026;51.460;7.252;2023-07-22T00:19:56;18.10;78.90
2042;DHT22;1026;51.460;7.252;2023-07-22T00:22:23;18.10;78.90
2042;DHT22;1026;51.460;7.252;2023-07-22T00:24:56;18.10;78.90
2042;DHT22;1026;51.460;7.252;2023-07-22T00:27:33;18.10;78.90
2042;DHT22;1026;51.460;7.252;2023-07-22T00:30:20;18.10;78.90
2042;DHT22;1026;51.460;7.252;2023-07-22T00:32:46;18.00;78.90
2042;DHT22;1026;51.460;7.252;2023-07-22T00:35:20;18.00;78.80
2042;DHT22;1026;51.460;7.252;2023-07-22T00:37:48;18.00;78.90
2042;DHT22;1026;51.460;7.252;2023-07-22T00:40:15;18.00;78.90
2042;DHT22;1026;51.460;7.252;2023-07-22T00:42:49;18.00;78.90
2042;DHT22;1026;51.460;7.252;2023-07-22T00:45:23;18.00;78.90
2042;DHT22;1026;51.460;7.252;2023-07-22T00:47:56;18.00;78.90
2042;DHT22;1026;51.460;7.252;2023-07-22T00:50:24;18.00;79.00
2042;DHT22;1026;51.460;7.252;2023-07-22T00:52:58;18.00;78.90
2042;DHT22;1026;51.460;7.252;2023-07-22T00:55:25;17.90;78.80
2042;DHT22;1026;51.460;7.252;2023-07-22T00:57:53;17.90;78.80
2042;DHT22;1026;51.460;7.252;2023-07-22T01:00:27;17.90;78.80
2042;DHT22;1026;51.460;7.252;2023-07-22T01:03:00;17.90;78.80
2042;DHT22;1026;51.460;7.252;2023-07-22T01:05:27;17.90;79.60
2042;DHT22;1026;51.460;7.252;2023-07-22T01:07:54;17.90;78.80
2042;DHT22;1026;51.460;7.252;2023-07-22T01:10:28;17.80;78.70
2042;DHT22;1026;51.460;7.252;2023-07-22T01:13:01;17.80;78.70
2042;DHT22;1026;51.460;7.252;2023-07-22T01:15:28;17.80;78.70
2042;DHT22;1026;51.460;7.252;2023-07-22T01:17:55;17.80;78.70
2042;DHT22;1026;51.460;7.252;2023-07-22T01:20:37;17.80;78.70
2042;DHT22;1026;51.460;7.252;2023-07-22T01:23:18;17.80;78.70
2042;DHT22;1026;51.460;7.252;2023-07-22T01:25:51;17.80;78.80
2042;DHT22;1026;51.460;7.252;2023-07-22T01:28:35;17.80;78.80
2042;DHT22;1026;51.460;7.252;2023-07-22T01:31:09;17.80;78.70
2042;DHT22;1026;51.460;7.252;2023-07-22T01:33:43;17.80;78.80
2042;DHT22;1026;51.460;7.252;2023-07-22T01:36:16;17.70;78.70
2042;DHT22;1026;51.460;7.252;2023-07-22T01:38:51;17.70;78.60
2042;DHT22;1026;51.460;7.252;2023-07-22T01:41:18;17.70;78.70
2042;DHT22;1026;51.460;7.252;2023-07-22T01:43:44;17.70;78.70
2042;DHT22;1026;51.460;7.252;2023-07-22T01:46:18;17.70;78.70
2042;DHT22;1026;51.460;7.252;2023-07-22T01:48:45;17.70;78.70
2042;DHT22;1026;51.460;7.252;2023-07-22T01:51:12;17.70;78.70
2042;DHT22;1026;51.460;7.252;2023-07-22T01:53:45;17.70;78.70
2042;DHT22;1026;51.460;7.252;2023-07-22T01:56:12;17.70;78.80
2042;DHT22;1026;51.460;7.252;2023-07-22T01:58:39;17.70;78.80
2042;DHT22;1026;51.460;7.252;2023-07-22T02:01:13;17.70;78.70
2042;DHT22;1026;51.460;7.252;2023-07-22T02:03:42;17.70;78.80
2042;DHT22;1026;51.460;7.252;2023-07-22T02:06:16;17.60;78.70
2042;DHT22;1026;51.460;7.252;2023-07-22T02:08:43;17.70;78.80
2042;DHT22;1026;51.460;7.252;2023-07-22T02:11:16;17.60;79.50
2042;DHT22;1026;51.460;7.252;2023-07-22T02:13:44;17.60;78.70
2042;DHT22;1026;51.460;7.252;2023-07-22T02:16:11;17.60;78.70
2042;DHT22;1026;51.460;7.252;2023-07-22T02:18:49;17.60;78.80
2042;DHT22;1026;51.460;7.252;2023-07-22T02:21:22;17.60;78.80
2042;DHT22;1026;51.460;7.252;2023-07-22T02:23:56;17.60;79.50
2042;DHT22;1026;51.460;7.252;2023-07-22T02:26:30;17.50;78.70
2042;DHT22;1026;51.460;7.252;2023-07-22T02:29:03;17.50;78.70
2042;DHT22;1026;51.460;7.252;2023-07-22T02:31:36;17.50;79.40
2042;DHT22;1026;51.460;7.252;2023-07-22T02:34:03;17.50;78.70
2042;DHT22;1026;51.460;7.252;2023-07-22T02:36:36;17.50;78.70
2042;DHT22;1026;51.460;7.252;2023-07-22T02:39:03;17.50;78.70
2042;DHT22;1026;51.460;7.252;2023-07-22T02:41:36;17.50;78.70
2042;DHT22;1026;51.460;7.252;2023-07-22T02:44:10;17.50;78.70
2042;DHT22;1026;51.460;7.252;2023-07-22T02:46:37;17.50;78.70
2042;DHT22;1026;51.460;7.252;2023-07-22T02:49:04;17.50;78.70
2042;DHT22;1026;51.460;7.252;2023-07-22T02:51:38;17.50;78.70
2042;DHT22;1026;51.460;7.252;2023-07-22T02:54:05;17.50;78.70
2042;DHT22;1026;51.460;7.252;2023-07-22T02:56:32;17.40;78.60
2042;DHT22;1026;51.460;7.252;2023-07-22T02:59:05;17.40;78.60
2042;DHT22;1026;51.460;7.252;2023-07-22T03:01:32;17.40;78.60
2042;DHT22;1026;51.460;7.252;2023-07-22T03:03:59;17.40;78.60
2042;DHT22;1026;51.460;7.252;2023-07-22T03:06:33;17.40;78.60
2042;DHT22;1026;51.460;7.252;2023-07-22T03:09:09;17.40;78.60
2042;DHT22;1026;51.460;7.252;2023-07-22T03:11:37;17.40;78.60
2042;DHT22;1026;51.460;7.252;2023-07-22T03:14:04;17.40;78.60
2042;DHT22;1026;51.460;7.252;2023-07-22T03:16:38;17.40;78.60
2042;DHT22;1026;51.460;7.252;2023-07-22T03:19:05;17.40;78.60
2042;DHT22;1026;51.460;7.252;2023-07-22T03:21:33;17.40;78.60
2042;DHT22;1026;51.460;7.252;2023-07-22T03:24:06;17.40;78.60
2042;DHT22;1026;51.460;7.252;2023-07-22T03:26:33;17.40;78.60
2042;DHT22;1026;51.460;7.252;2023-07-22T03:29:20;17.40;78.70
2042;DHT22;1026;51.460;7.252;2023-07-22T03:31:47;17.30;79.30
2042;DHT22;1026;51.460;7.252;2023-07-22T03:34:20;17.30;78.60
2042;DHT22;1026;51.460;7.252;2023-07-22T03:36:54;17.30;78.60
2042;DHT22;1026;51.460;7.252;2023-07-22T03:39:27;17.30;78.60
2042;DHT22;1026;51.460;7.252;2023-07-22T03:41:54;17.30;78.60
2042;DHT22;1026;51.460;7.252;2023-07-22T03:44:27;17.30;78.60
2042;DHT22;1026;51.460;7.252;2023-07-22T03:46:56;17.30;78.60
2042;DHT22;1026;51.460;7.252;2023-07-22T03:49:23;17.30;78.60
2042;DHT22;1026;51.460;7.252;2023-07-22T03:51:56;17.30;78.60
2042;DHT22;1026;51.460;7.252;2023-07-22T03:54:23;17.30;78.60
2042;DHT22;1026;51.460;7.252;2023-07-22T03:56:50;17.30;78.60
2042;DHT22;1026;51.460;7.252;2023-07-22T03:59:26;17.30;78.60
2042;DHT22;1026;51.460;7.252;2023-07-22T04:01:55;17.30;78.60
2042;DHT22;1026;51.460;7.252;2023-07-22T04:04:21;17.30;78.60
2042;DHT22;1026;51.460;7.252;2023-07-22T04:06:55;17.20;78.50
2042;DHT22;1026;51.460;7.252;2023-07-22T04:09:28;17.30;78.60
2042;DHT22;1026;51.460;7.252;2023-07-22T04:12:01;17.20;78.50
2042;DHT22;1026;51.460;7.252;2023-07-22T04:14:28;17.20;78.50
2042;DHT22;1026;51.460;7.252;2023-07-22T04:16:55;17.20;78.50
2042;DHT22;1026;51.460;7.252;2023-07-22T04:19:29;17.20;79.30
2042;DHT22;1026;51.460;7.252;2023-07-22T04:21:57;17.20;78.50
2042;DHT22;1026;51.460;7.252;2023-07-22T04:24:24;17.20;78.50
2042;DHT22;1026;51.460;7.252;2023-07-22T04:27:01;17.20;78.60
2042;DHT22;1026;51.460;7.252;2023-07-22T04:29:42;17.20;78.50
2042;DHT22;1026;51.460;7.252;2023-07-22T04:32:16;17.20;78.50
2042;DHT22;1026;51.460;7.252;2023-07-22T04:34:43;17.20;78.50
2042;DHT22;1026;51.460;7.252;2023-07-22T04:37:10;17.20;79.30
2042;DHT22;1026;51.460;7.252;2023-07-22T04:39:47;17.20;78.50
2042;DHT22;1026;51.460;7.252;2023-07-22T04:42:14;17.20;78.50
2042;DHT22;1026;51.460;7.252;2023-07-22T04:44:48;17.20;78.50
2042;DHT22;1026;51.460;7.252;2023-07-22T04:47:15;17.20;78.50
2042;DHT22;1026;51.460;7.252;2023-07-22T04:49:42;17.20;78.60
2042;DHT22;1026;51.460;7.252;2023-07-22T04:52:16;17.10;78.50
2042;DHT22;1026;51.460;7.252;2023-07-22T04:54:50;17.20;78.60
2042;DHT22;1026;51.460;7.252;2023-07-22T04:57:17;17.10;78.50
2042;DHT22;1026;51.460;7.252;2023-07-22T04:59:45;17.10;78.50
2042;DHT22;1026;51.460;7.252;2023-07-22T05:02:19;17.10;78.50
2042;DHT22;1026;51.460;7.252;2023-07-22T05:04:46;17.10;78.50
2042;DHT22;1026;51.460;7.252;2023-07-22T05:07:19;17.10;78.50
2042;DHT22;1026;51.460;7.252;2023-07-22T05:09:57;17.20;78.60
2042;DHT22;1026;51.460;7.252;2023-07-22T05:12:24;17.10;78.50
2042;DHT22;1026;51.460;7.252;2023-07-22T05:14:57;17.10;78.50
2042;DHT22;1026;51.460;7.252;2023-07-22T05:17:24;17.10;78.50
2042;DHT22;1026;51.460;7.252;2023-07-22T05:19:58;17.10;78.50
2042;DHT22;1026;51.460;7.252;2023-07-22T05:22:25;17.10;78.50
2042;DHT22;1026;51.460;7.252;2023-07-22T05:24:52;17.10;78.50
2042;DHT22;1026;51.460;7.252;2023-07-22T05:27:32;17.10;78.50
2042;DHT22;1026;51.460;7.252;2023-07-22T05:29:59;17.10;78.50
2042;DHT22;1026;51.460;7.252;2023-07-22T05:32:52;17.10;78.50
2042;DHT22;1026;51.460;7.252;2023-07-22T05:35:20;17.10;78.50
2042;DHT22;1026;51.460;7.252;2023-07-22T05:37:53;17.10;78.50
2042;DHT22;1026;51.460;7.252;2023-07-22T05:40:20;17.10;78.50
2042;DHT22;1026;51.460;7.252;2023-07-22T05:42:48;17.10;78.50
2042;DHT22;1026;51.460;7.252;2023-07-22T05:45:21;17.10;78.50
2042;DHT22;1026;51.460;7.252;2023-07-22T05:47:48;17.10;78.50
2042;DHT22;1026;51.460;7.252;2023-07-22T05:50:23;17.10;78.50
2042;DHT22;1026;51.460;7.252;2023-07-22T05:52:56;17.10;78.50
2042;DHT22;1026;51.460;7.252;2023-07-22T05:55:23;17.10;78.50
2042;DHT22;1026;51.460;7.252;2023-07-22T05:57:50;17.10;79.20
2042;DHT22;1026;51.460;7.252;2023-07-22T06:00:44;17.10;79.20
2042;DHT22;1026;51.460;7.252;2023-07-22T06:03:29;17.10;78.50
2042;DHT22;1026;51.460;7.252;2023-07-22T06:08:41;17.10;78.50
2042;DHT22;1026;51.460;7.252;2023-07-22T06:11:14;17.10;78.50
2042;DHT22;1026;51.460;7.252;2023-07-22T06:13:49;17.10;78.50
2042;DHT22;1026;51.460;7.252;2023-07-22T06:16:16;17.10;78.50
2042;DHT22;1026;51.460;7.252;2023-07-22T06:18:50;17.10;78.50
2042;DHT22;1026;51.460;7.252;2023-07-22T06:21:17;17.10;78.50
2042;DHT22;1026;51.460;7.252;2023-07-22T06:23:44;17.10;78.50
2042;DHT22;1026;51.460;7.252;2023-07-22T06:26:17;17.10;78.50
2042;DHT22;1026;51.460;7.252;2023-07-22T06:28:58;17.10;78.50
2042;DHT22;1026;51.460;7.252;2023-07-22T06:31:32;17.10;78.50
2042;DHT22;1026;51.460;7.252;2023-07-22T06:33:59;17.10;78.50
2042;DHT22;1026;51.460;7.252;2023-07-22T06:36:26;17.10;78.50
2042;DHT22;1026;51.460;7.252;2023-07-22T06:39:00;17.00;78.40
2042;DHT22;1026;51.460;7.252;2023-07-22T06:41:27;17.10;78.50
2042;DHT22;1026;51.460;7.252;2023-07-22T06:43:54;17.10;78.50
2042;DHT22;1026;51.460;7.252;2023-07-22T06:46:28;17.10;78.50
2042;DHT22;1026;51.460;7.252;2023-07-22T06:48:56;17.10;78.50
2042;DHT22;1026;51.460;7.252;2023-07-22T06:51:29;17.10;78.50
2042;DHT22;1026;51.460;7.252;2023-07-22T06:53:57;17.10;78.50
2042;DHT22;1026;51.460;7.252;2023-07-22T06:56:24;17.10;78.50
2042;DHT22;1026;51.460;7.252;2023-07-22T06:58:59;17.10;78.50
2042;DHT22;1026;51.460;7.252;2023-07-22T07:01:27;17.10;78.50
2042;DHT22;1026;51.460;7.252;2023-07-22T07:03:54;17.10;78.50
2042;DHT22;1026;51.460;7.252;2023-07-22T07:06:29;17.10;78.50
2042;DHT22;1026;51.460;7.252;2023-07-22T07:09:03;17.10;78.50
2042;DHT22;1026;51.460;7.252;2023-07-22T07:11:30;17.10;78.40
2042;DHT22;1026;51.460;7.252;2023-07-22T07:14:04;17.10;78.40
2042;DHT22;1026;51.460;7.252;2023-07-22T07:16:32;17.10;78.50
2042;DHT22;1026;51.460;7.252;2023-07-22T07:19:01;17.10;78.40
2042;DHT22;1026;51.460;7.252;2023-07-22T07:21:35;17.10;78.40
2042;DHT22;1026;51.460;7.252;2023-07-22T07:24:03;17.10;78.40
2042;DHT22;1026;51.460;7.252;2023-07-22T07:26:30;17.10;78.40
2042;DHT22;1026;51.460;7.252;2023-07-22T07:29:03;17.10;78.40
2042;DHT22;1026;51.460;7.252;2023-07-22T07:31:39;17.10;78.40
2042;DHT22;1026;51.460;7.252;2023-07-22T07:34:13;17.10;78.30
2042;DHT22;1026;51.460;7.252;2023-07-22T07:36:41;17.10;78.30
2042;DHT22;1026;51.460;7.252;2023-07-22T07:39:15;17.20;78.40
2042;DHT22;1026;51.460;7.252;2023-07-22T07:41:42;17.20;78.40
2042;DHT22;1026;51.460;7.252;2023-07-22T07:44:09;17.20;78.30
2042;DHT22;1026;51.460;7.252;2023-07-22T07:46:43;17.20;78.30
2042;DHT22;1026;51.460;7.252;2023-07-22T07:49:10;17.20;78.30
2042;DHT22;1026;51.460;7.252;2023-07-22T07:51:37;17.20;78.20
2042;DHT22;1026;51.460;7.252;2023-07-22T07:54:11;17.20;78.20
2042;DHT22;1026;51.460;7.252;2023-07-22T07:56:38;17.20;78.20
2042;DHT22;1026;51.460;7.252;2023-07-22T07:59:12;17.20;78.20
2042;DHT22;1026;51.460;7.252;2023-07-22T08:01:38;17.20;78.20
2042;DHT22;1026;51.460;7.252;2023-07-22T08:04:15;17.20;78.20
2042;DHT22;1026;51.460;7.252;2023-07-22T08:06:44;17.20;78.10
2042;DHT22;1026;51.460;7.252;2023-07-22T08:09:17;17.20;78.10
2042;DHT22;1026;51.460;7.252;2023-07-22T08:11:46;17.20;78.50
2042;DHT22;1026;51.460;7.252;2023-07-22T08:14:13;17.20;78.10
2042;DHT22;1026;51.460;7.252;2023-07-22T08:16:48;17.30;78.10
2042;DHT22;1026;51.460;7.252;2023-07-22T08:19:15;17.30;78.10
2042;DHT22;1026;51.460;7.252;2023-07-22T08:21:49;17.30;78.10
2042;DHT22;1026;51.460;7.252;2023-07-22T08:24:16;17.30;78.10
2042;DHT22;1026;51.460;7.252;2023-07-22T08:26:43;17.30;78.00
2042;DHT22;1026;51.460;7.252;2023-07-22T08:29:23;17.30;78.00
2042;DHT22;1026;51.460;7.252;2023-07-22T08:31:50;17.30;78.00
2042;DHT22;1026;51.460;7.252;2023-07-22T08:34:24;17.40;78.00
2042;DHT22;1026;51.460;7.252;2023-07-22T08:36:51;17.40;78.70
2042;DHT22;1026;51.460;7.252;2023-07-22T08:39:18;17.40;77.90
2042;DHT22;1026;51.460;7.252;2023-07-22T08:41:53;17.40;77.90
2042;DHT22;1026;51.460;7.252;2023-07-22T08:44:32;17.40;77.80
2042;DHT22;1026;51.460;7.252;2023-07-22T08:47:10;17.50;77.70
2042;DHT22;1026;51.460;7.252;2023-07-22T08:49:51;17.50;77.70
2042;DHT22;1026;51.460;7.252;2023-07-22T08:52:19;17.50;77.70
2042;DHT22;1026;51.460;7.252;2023-07-22T08:54:53;17.50;77.80
2042;DHT22;1026;51.460;7.252;2023-07-22T08:57:21;17.50;77.70
2042;DHT22;1026;51.460;7.252;2023-07-22T08:59:57;17.60;77.80
2042;DHT22;1026;51.460;7.252;2023-07-22T09:02:24;17.60;77.70
2042;DHT22;1026;51.460;7.252;2023-07-22T09:04:59;17.60;77.70
2042;DHT22;1026;51.460;7.252;2023-07-22T09:07:26;17.60;77.80
2042;DHT22;1026;51.460;7.252;2023-07-22T09:09:53;17.70;78.00
2042;DHT22;1026;51.460;7.252;2023-07-22T09:12:28;17.70;77.80
2042;DHT22;1026;51.460;7.252;2023-07-22T09:14:56;17.70;77.70
2042;DHT22;1026;51.460;7.252;2023-07-22T09:17:30;17.80;77.50
2042;DHT22;1026;51.460;7.252;2023-07-22T09:19:58;17.80;77.50
2042;DHT22;1026;51.460;7.252;2023-07-22T09:22:25;17.80;77.50
2042;DHT22;1026;51.460;7.252;2023-07-22T09:25:33;17.90;78.20
2042;DHT22;1026;51.460;7.252;2023-07-22T09:28:13;18.00;77.30
2042;DHT22;1026;51.460;7.252;2023-07-22T09:30:48;18.00;77.20
2042;DHT22;1026;51.460;7.252;2023-07-22T09:33:22;18.00;77.20
2042;DHT22;1026;51.460;7.252;2023-07-22T09:35:49;18.00;77.10
2042;DHT22;1026;51.460;7.252;2023-07-22T09:38:24;18.00;76.90
2042;DHT22;1026;51.460;7.252;2023-07-22T09:40:58;18.10;77.10
2042;DHT22;1026;51.460;7.252;2023-07-22T09:43:25;18.10;76.70
2042;DHT22;1026;51.460;7.252;2023-07-22T09:46:09;18.10;76.60
2042;DHT22;1026;51.460;7.252;2023-07-22T09:48:41;18.20;76.90
2042;DHT22;1026;51.460;7.252;2023-07-22T09:51:15;18.20;76.70
2042;DHT22;1026;51.460;7.252;2023-07-22T09:54:00;18.20;76.50
2042;DHT22;1026;51.460;7.252;2023-07-22T09:56:44;18.30;76.50
2042;DHT22;1026;51.460;7.252;2023-07-22T09:59:11;18.30;76.40
2042;DHT22;1026;51.460;7.252;2023-07-22T10:01:46;18.30;76.20
2042;DHT22;1026;51.460;7.252;2023-07-22T10:04:18;18.40;76.60
2042;DHT22;1026;51.460;7.252;2023-07-22T10:06:55;18.40;76.10
2042;DHT22;1026;51.460;7.252;2023-07-22T10:09:24;18.40;76.20
2042;DHT22;1026;51.460;7.252;2023-07-22T10:11:53;18.40;76.40
2042;DHT22;1026;51.460;7.252;2023-07-22T10:14:27;18.50;76.30
2042;DHT22;1026;51.460;7.252;2023-07-22T10:17:04;18.50;76.00
2042;DHT22;1026;51.460;7.252;2023-07-22T10:19:33;18.60;75.70
2042;DHT22;1026;51.460;7.252;2023-07-22T10:22:01;18.60;75.80
2042;DHT22;1026;51.460;7.252;2023-07-22T10:24:35;18.60;75.40
2042;DHT22;1026;51.460;7.252;2023-07-22T10:27:09;18.70;75.80
2042;DHT22;1026;51.460;7.252;2023-07-22T10:29:59;18.70;75.50
2042;DHT22;1026;51.460;7.252;2023-07-22T10:32:35;18.80;75.90
2042;DHT22;1026;51.460;7.252;2023-07-22T10:35:43;18.90;75.30
2042;DHT22;1026;51.460;7.252;2023-07-22T10:38:15;18.90;75.30
2042;DHT22;1026;51.460;7.252;2023-07-22T10:40:51;18.90;75.00
2042;DHT22;1026;51.460;7.252;2023-07-22T10:43:24;19.00;74.90
2042;DHT22;1026;51.460;7.252;2023-07-22T10:46:04;19.00;74.60
2042;DHT22;1026;51.460;7.252;2023-07-22T10:48:36;19.00;74.60
2042;DHT22;1026;51.460;7.252;2023-07-22T10:51:12;19.00;73.90
2042;DHT22;1026;51.460;7.252;2023-07-22T10:53:49;19.10;74.70
2042;DHT22;1026;51.460;7.252;2023-07-22T10:56:23;19.10;73.90
2042;DHT22;1026;51.460;7.252;2023-07-22T10:59:02;19.10;73.80
2042;DHT22;1026;51.460;7.252;2023-07-22T11:04:28;19.20;73.60
2042;DHT22;1026;51.460;7.252;2023-07-22T11:07:30;19.30;74.10
2042;DHT22;1026;51.460;7.252;2023-07-22T11:10:19;19.30;73.40
2042;DHT22;1026;51.460;7.252;2023-07-22T11:12:46;19.40;72.90
2042;DHT22;1026;51.460;7.252;2023-07-22T11:15:20;19.40;73.00
2042;DHT22;1026;51.460;7.252;2023-07-22T11:17:49;19.50;73.40
2042;DHT22;1026;51.460;7.252;2023-07-22T11:20:16;19.50;73.10
2042;DHT22;1026;51.460;7.252;2023-07-22T11:22:50;19.50;73.10
2042;DHT22;1026;51.460;7.252;2023-07-22T11:25:17;19.60;72.50
2042;DHT22;1026;51.460;7.252;2023-07-22T11:28:04;19.50;72.60
2042;DHT22;1026;51.460;7.252;2023-07-22T11:30:32;19.60;72.80
2042;DHT22;1026;51.460;7.252;2023-07-22T11:33:06;19.60;72.30
2042;DHT22;1026;51.460;7.252;2023-07-22T11:35:33;19.70;72.30
2042;DHT22;1026;51.460;7.252;2023-07-22T11:38:07;19.70;72.30
2042;DHT22;1026;51.460;7.252;2023-07-22T11:40:41;19.70;71.70
2042;DHT22;1026;51.460;7.252;2023-07-22T11:43:08;19.80;71.70
2042;DHT22;1026;51.460;7.252;2023-07-22T11:45:43;19.90;71.90
2042;DHT22;1026;51.460;7.252;2023-07-22T11:48:12;19.90;71.30
2042;DHT22;1026;51.460;7.252;2023-07-22T11:50:58;20.00;71.40
2042;DHT22;1026;51.460;7.252;2023-07-22T11:53:32;20.00;71.10
2042;DHT22;1026;51.460;7.252;2023-07-22T11:56:06;20.10;71.20
2042;DHT22;1026;51.460;7.252;2023-07-22T11:58:33;20.10;71.00
2042;DHT22;1026;51.460;7.252;2023-07-22T12:01:06;20.20;71.30
2042;DHT22;1026;51.460;7.252;2023-07-22T12:03:41;20.20;71.10
2042;DHT22;1026;51.460;7.252;2023-07-22T12:06:08;20.20;71.10
2042;DHT22;1026;51.460;7.252;2023-07-22T12:08:43;20.30;70.90
2042;DHT22;1026;51.460;7.252;2023-07-22T12:11:20;20.30;70.60
2042;DHT22;1026;51.460;7.252;2023-07-22T12:13:47;20.40;70.60
2042;DHT22;1026;51.460;7.252;2023-07-22T12:16:24;20.40;70.80
2042;DHT22;1026;51.460;7.252;2023-07-22T12:18:54;20.50;70.60
2042;DHT22;1026;51.460;7.252;2023-07-22T12:21:29;20.50;70.40
2042;DHT22;1026;51.460;7.252;2023-07-22T12:24:03;20.60;70.40
2042;DHT22;1026;51.460;7.252;2023-07-22T12:26:37;20.60;70.60
2042;DHT22;1026;51.460;7.252;2023-07-22T12:29:16;20.60;70.10
2042;DHT22;1026;51.460;7.252;2023-07-22T12:31:44;20.70;70.60
2042;DHT22;1026;51.460;7.252;2023-07-22T12:34:17;20.70;69.80
2042;DHT22;1026;51.460;7.252;2023-07-22T12:36:44;20.70;69.80
2042;DHT22;1026;51.460;7.252;2023-07-22T12:39:11;20.80;69.30
2042;DHT22;1026;51.460;7.252;2023-07-22T12:41:45;20.80;69.60
2042;DHT22;1026;51.460;7.252;2023-07-22T12:44:18;20.80;68.90
2042;DHT22;1026;51.460;7.252;2023-07-22T12:46:45;20.90;69.90
2042;DHT22;1026;51.460;7.252;2023-07-22T12:49:12;20.90;68.90
2042;DHT22;1026;51.460;7.252;2023-07-22T12:51:46;21.00;69.40
2042;DHT22;1026;51.460;7.252;2023-07-22T12:54:20;21.00;69.40
2042;DHT22;1026;51.460;7.252;2023-07-22T12:56:54;21.00;69.00
2042;DHT22;1026;51.460;7.252;2023-07-22T12:59:21;21.10;68.80
2042;DHT22;1026;51.460;7.252;2023-07-22T13:01:48;21.10;68.40
2042;DHT22;1026;51.460;7.252;2023-07-22T13:04:22;21.20;68.70
2042;DHT22;1026;51.460;7.252;2023-07-22T13:06:50;21.20;69.60
2042;DHT22;1026;51.460;7.252;2023-07-22T13:09:25;21.20;68.30
2042;DHT22;1026;51.460;7.252;2023-07-22T13:11:59;21.30;67.50
2042;DHT22;1026;51.460;7.252;2023-07-22T13:14:26;21.30;68.50
2042;DHT22;1026;51.460;7.252;2023-07-22T13:16:53;21.40;67.60
2042;DHT22;1026;51.460;7.252;2023-07-22T13:19:27;21.40;67.30
2042;DHT22;1026;51.460;7.252;2023-07-22T13:21:54;21.50;67.80
2042;DHT22;1026;51.460;7.252;2023-07-22T13:24:21;21.50;68.10
2042;DHT22;1026;51.460;7.252;2023-07-22T13:26:55;21.50;67.50
2042;DHT22;1026;51.460;7.252;2023-07-22T13:29:42;21.50;67.70
2042;DHT22;1026;51.460;7.252;2023-07-22T13:32:10;21.60;68.30
2042;DHT22;1026;51.460;7.252;2023-07-22T13:34:44;21.60;67.80
2042;DHT22;1026;51.460;7.252;2023-07-22T13:37:18;21.70;68.10
2042;DHT22;1026;51.460;7.252;2023-07-22T13:39:45;21.80;67.00
2042;DHT22;1026;51.460;7.252;2023-07-22T13:42:19;21.80;67.30
2042;DHT22;1026;51.460;7.252;2023-07-22T13:44:46;21.80;67.60
2042;DHT22;1026;51.460;7.252;2023-07-22T13:47:14;21.90;67.70
2042;DHT22;1026;51.460;7.252;2023-07-22T13:49:48;21.90;67.20
2042;DHT22;1026;51.460;7.252;2023-07-22T13:52:21;21.90;67.00
2042;DHT22;1026;51.460;7.252;2023-07-22T13:54:55;22.00;67.30
2042;DHT22;1026;51.460;7.252;2023-07-22T13:57:29;22.00;66.20
2042;DHT22;1026;51.460;7.252;2023-07-22T14:00:02;22.00;67.10
2042;DHT22;1026;51.460;7.252;2023-07-22T14:02:35;22.10;66.30
2042;DHT22;1026;51.460;7.252;2023-07-22T14:05:09;22.20;66.60
2042;DHT22;1026;51.460;7.252;2023-07-22T14:07:43;22.20;67.10
2042;DHT22;1026;51.460;7.252;2023-07-22T14:10:17;22.30;66.40
2042;DHT22;1026;51.460;7.252;2023-07-22T14:12:44;22.30;66.80
2042;DHT22;1026;51.460;7.252;2023-07-22T14:15:11;22.30;65.20
2042;DHT22;1026;51.460;7.252;2023-07-22T14:17:44;22.40;65.50
2042;DHT22;1026;51.460;7.252;2023-07-22T14:20:11;22.40;65.50
2042;DHT22;1026;51.460;7.252;2023-07-22T14:22:45;22.40;65.50
2042;DHT22;1026;51.460;7.252;2023-07-22T14:25:19;22.50;65.50
2042;DHT22;1026;51.460;7.252;2023-07-22T14:27:52;22.50;65.10
2042;DHT22;1026;51.460;7.252;2023-07-22T14:30:26;22.50;66.30
2042;DHT22;1026;51.460;7.252;2023-07-22T14:32:53;22.60;64.90
2042;DHT22;1026;51.460;7.252;2023-07-22T14:35:20;22.60;65.20
2042;DHT22;1026;51.460;7.252;2023-07-22T14:37:53;22.70;64.80
2042;DHT22;1026;51.460;7.252;2023-07-22T14:40:20;22.70;63.40
2042;DHT22;1026;51.460;7.252;2023-07-22T14:42:54;22.80;63.40
2042;DHT22;1026;51.460;7.252;2023-07-22T14:45:27;22.80;63.40
2042;DHT22;1026;51.460;7.252;2023-07-22T14:47:54;22.90;63.60
2042;DHT22;1026;51.460;7.252;2023-07-22T14:50:21;22.90;64.10
2042;DHT22;1026;51.460;7.252;2023-07-22T14:52:55;22.90;63.80
2042;DHT22;1026;51.460;7.252;2023-07-22T14:55:22;22.90;63.80
2042;DHT22;1026;51.460;7.252;2023-07-22T14:57:56;22.90;62.50
2042;DHT22;1026;51.460;7.252;2023-07-22T15:00:24;23.00;62.20
2042;DHT22;1026;51.460;7.252;2023-07-22T15:02:51;23.00;62.80
2042;DHT22;1026;51.460;7.252;2023-07-22T15:05:25;23.10;61.60
2042;DHT22;1026;51.460;7.252;2023-07-22T15:07:59;23.10;63.00
2042;DHT22;1026;51.460;7.252;2023-07-22T15:10:26;23.10;62.70
2042;DHT22;1026;51.460;7.252;2023-07-22T15:13:00;23.10;64.30
2042;DHT22;1026;51.460;7.252;2023-07-22T15:15:27;23.10;64.20
2042;DHT22;1026;51.460;7.252;2023-07-22T15:17:54;23.20;61.80
2042;DHT22;1026;51.460;7.252;2023-07-22T15:20:28;23.20;61.20
2042;DHT22;1026;51.460;7.252;2023-07-22T15:23:01;23.20;62.60
2042;DHT22;1026;51.460;7.252;2023-07-22T15:25:28;23.20;62.10
2042;DHT22;1026;51.460;7.252;2023-07-22T15:27:55;23.20;61.00
2042;DHT22;1026;51.460;7.252;2023-07-22T15:30:29;23.20;61.20
2042;DHT22;1026;51.460;7.252;2023-07-22T15:33:02;23.30;60.50
2042;DHT22;1026;51.460;7.252;2023-07-22T15:35:36;23.30;62.70
2042;DHT22;1026;51.460;7.252;2023-07-22T15:38:03;23.30;62.30
2042;DHT22;1026;51.460;7.252;2023-07-22T15:40:35;23.30;61.90
2042;DHT22;1026;51.460;7.252;2023-07-22T15:43:09;23.30;59.80
2042;DHT22;1026;51.460;7.252;2023-07-22T15:45:36;23.40;61.20
2042;DHT22;1026;51.460;7.252;2023-07-22T15:48:10;23.30;63.70
2042;DHT22;1026;51.460;7.252;2023-07-22T15:50:37;23.40;63.30
2042;DHT22;1026;51.460;7.252;2023-07-22T15:53:05;23.40;60.60
2042;DHT22;1026;51.460;7.252;2023-07-22T15:55:39;23.50;61.50
2042;DHT22;1026;51.460;7.252;2023-07-22T15:58:06;23.50;61.20
2042;DHT22;1026;51.460;7.252;2023-07-22T16:00:33;23.50;61.60
2042;DHT22;1026;51.460;7.252;2023-07-22T16:03:08;23.50;61.00
2042;DHT22;1026;51.460;7.252;2023-07-22T16:05:36;23.50;60.60
2042;DHT22;1026;51.460;7.252;2023-07-22T16:08:04;23.50;60.90
2042;DHT22;1026;51.460;7.252;2023-07-22T16:10:38;23.50;61.40
2042;DHT22;1026;51.460;7.252;2023-07-22T16:13:06;23.50;61.80
2042;DHT22;1026;51.460;7.252;2023-07-22T16:15:39;23.50;61.70
2042;DHT22;1026;51.460;7.252;2023-07-22T16:18:06;23.50;62.30
2042;DHT22;1026;51.460;7.252;2023-07-22T16:20:40;23.50;61.60
2042;DHT22;1026;51.460;7.252;2023-07-22T16:23:14;23.50;63.40
2042;DHT22;1026;51.460;7.252;2023-07-22T16:25:48;23.50;63.10
2042;DHT22;1026;51.460;7.252;2023-07-22T16:28:29;23.50;62.00
2042;DHT22;1026;51.460;7.252;2023-07-22T16:30:56;23.50;62.50
2042;DHT22;1026;51.460;7.252;2023-07-22T16:33:29;23.50;62.10
2042;DHT22;1026;51.460;7.252;2023-07-22T16:35:57;23.50;62.20
2042;DHT22;1026;51.460;7.252;2023-07-22T16:38:24;23.50;62.40